sensor_id;sensor_type;location;lat;lon;timestamp;temperature;humidity
15296;DHT22;7749;49.964;7.890;2023-08-01T00:02:27;18.10;99.90
15296;DHT22;7749;49.964;7.890;2023-08-01T00:04:55;18.10;99.90
15296;DHT22;7749;49.964;7.890;2023-08-01T00:07:22;18.10;99.90
15296;DHT22;7749;49.964;7.890;2023-08-01T00:09:51;18.10;99.90
15296;DHT22;7749;49.964;7.890;2023-08-01T00:12:18;18.10;99.90
15296;DHT22;7749;49.964;7.890;2023-08-01T00:14:46;18.20;99.90
15296;DHT22;7749;49.964;7.890;2023-08-01T00:17:29;18.10;99.90
15296;DHT22;7749;49.964;7.890;2023-08-01T00:20:02;18.10;99.90
15296;DHT22;7749;49.964;7.890;2023-08-01T00:22:30;18.10;99.90
15296;DHT22;7749;49.964;7.890;2023-08-01T00:24:57;18.10;99.90
15296;DHT22;7749;49.964;7.890;2023-08-01T00:27:25;18.10;99.90
15296;DHT22;7749;49.964;7.890;2023-08-01T00:29:53;18.10;99.90
15296;DHT22;7749;49.964;7.890;2023-08-01T00:32:21;18.20;99.90
15296;DHT22;7749;49.964;7.890;2023-08-01T00:34:50;18.20;99.90
15296;DHT22;7749;49.964;7.890;2023-08-01T00:37:18;18.20;99.90
15296;DHT22;7749;49.964;7.890;2023-08-01T00:39:46;18.10;99.90
15296;DHT22;7749;49.964;7.890;2023-08-01T00:42:14;18.10;99.90
15296;DHT22;7749;49.964;7.890;2023-08-01T00:44:42;18.10;99.90
15296;DHT22;7749;49.964;7.890;2023-08-01T00:47:10;18.10;99.90
15296;DHT22;7749;49.964;7.890;2023-08-01T00:49:38;18.10;99.90
15296;DHT22;7749;49.964;7.890;2023-08-01T00:52:06;18.10;99.90
15296;DHT22;7749;49.964;7.890;2023-08-01T00:54:34;18.10;99.90
15296;DHT22;7749;49.964;7.890;2023-08-01T00:57:05;18.10;99.90
15296;DHT22;7749;49.964;7.890;2023-08-01T00:59:33;18.10;99.90
15296;DHT22;7749;49.964;7.890;2023-08-01T01:02:02;18.10;99.90
15296;DHT22;7749;49.964;7.890;2023-08-01T01:04:33;18.20;99.90
15296;DHT22;7749;49.964;7.890;2023-08-01T01:07:03;18.10;99.90
15296;DHT22;7749;49.964;7.890;2023-08-01T01:09:31;18.20;99.90
15296;DHT22;7749;49.964;7.890;2023-08-01T01:12:01;18.20;99.90
15296;DHT22;7749;49.964;7.890;2023-08-01T01:14:29;18.20;99.90
15296;DHT22;7749;49.964;7.890;2023-08-01T01:16:56;18.20;99.90
15296;DHT22;7749;49.964;7.890;2023-08-01T01:19:24;18.20;99.90
15296;DHT22;7749;49.964;7.890;2023-08-01T01:21:51;18.20;99.90
15296;DHT22;7749;49.964;7.890;2023-08-01T01:24:20;18.20;99.90
15296;DHT22;7749;49.964;7.890;2023-08-01T01:27:04;18.20;99.90
15296;DHT22;7749;49.964;7.890;2023-08-01T01:29:33;18.20;99.90
15296;DHT22;7749;49.964;7.890;2023-08-01T01:32:01;18.10;99.90
15296;DHT22;7749;49.964;7.890;2023-08-01T01:34:29;18.10;99.90
15296;DHT22;7749;49.964;7.890;2023-08-01T01:36:56;18.10;99.90
15296;DHT22;7749;49.964;7.890;2023-08-01T01:39:24;18.10;99.90
15296;DHT22;7749;49.964;7.890;2023-08-01T01:41:51;18.10;99.90
15296;DHT22;7749;49.964;7.890;2023-08-01T01:44:18;18.10;99.90
15296;DHT22;7749;49.964;7.890;2023-08-01T01:46:46;18.10;99.90
15296;DHT22;7749;49.964;7.890;2023-08-01T01:49:17;18.20;99.90
15296;DHT22;7749;49.964;7.890;2023-08-01T01:51:44;18.20;99.90
15296;DHT22;7749;49.964;7.890;2023-08-01T01:54:11;18.20;99.90
15296;DHT22;7749;49.964;7.890;2023-08-01T01:56:39;18.20;99.90
15296;DHT22;7749;49.964;7.890;2023-08-01T01:59:07;18.20;99.90
15296;DHT22;7749;49.964;7.890;2023-08-01T02:01:34;18.20;99.90
15296;DHT22;7749;49.964;7.890;2023-08-01T02:04:01;18.20;99.90
15296;DHT22;7749;49.964;7.890;2023-08-01T02:06:29;18.20;99.90
15296;DHT22;7749;49.964;7.890;2023-08-01T02:08:57;18.30;99.90
15296;DHT22;7749;49.964;7.890;2023-08-01T02:11:24;18.20;99.90
15296;DHT22;7749;49.964;7.890;2023-08-01T02:13:51;18.30;99.90
15296;DHT22;7749;49.964;7.890;2023-08-01T02:16:19;18.20;99.90
15296;DHT22;7749;49.964;7.890;2023-08-01T02:18:46;18.30;99.90
15296;DHT22;7749;49.964;7.890;2023-08-01T02:21:14;18.30;99.90
15296;DHT22;7749;49.964;7.890;2023-08-01T02:23:41;18.30;99.90
15296;DHT22;7749;49.964;7.890;2023-08-01T02:26:08;18.40;99.90
15296;DHT22;7749;49.964;7.890;2023-08-01T02:28:36;18.30;99.90
15296;DHT22;7749;49.964;7.890;2023-08-01T02:31:04;18.30;99.90
15296;DHT22;7749;49.964;7.890;2023-08-01T02:33:31;18.40;99.90
15296;DHT22;7749;49.964;7.890;2023-08-01T02:35:59;18.40;99.90
15296;DHT22;7749;49.964;7.890;2023-08-01T02:38:26;18.30;99.90
15296;DHT22;7749;49.964;7.890;2023-08-01T02:40:53;18.40;99.90
15296;DHT22;7749;49.964;7.890;2023-08-01T02:43:21;18.40;99.90
15296;DHT22;7749;49.964;7.890;2023-08-01T02:45:48;18.40;99.90
15296;DHT22;7749;49.964;7.890;2023-08-01T02:48:16;18.40;99.90
15296;DHT22;7749;49.964;7.890;2023-08-01T02:50:43;18.40;99.90
15296;DHT22;7749;49.964;7.890;2023-08-01T02:53:10;18.50;99.90
15296;DHT22;7749;49.964;7.890;2023-08-01T02:55:38;18.50;99.90
15296;DHT22;7749;49.964;7.890;2023-08-01T02:58:06;18.40;99.90
15296;DHT22;7749;49.964;7.890;2023-08-01T03:00:37;18.40;99.90
15296;DHT22;7749;49.964;7.890;2023-08-01T03:03:04;18.50;99.90
15296;DHT22;7749;49.964;7.890;2023-08-01T03:05:32;18.40;99.90
15296;DHT22;7749;49.964;7.890;2023-08-01T03:08:02;18.50;99.90
15296;DHT22;7749;49.964;7.890;2023-08-01T03:10:30;18.50;99.90
15296;DHT22;7749;49.964;7.890;2023-08-01T03:13:03;18.50;99.90
15296;DHT22;7749;49.964;7.890;2023-08-01T03:15:31;18.50;99.90
15296;DHT22;7749;49.964;7.890;2023-08-01T03:17:59;18.50;99.90
15296;DHT22;7749;49.964;7.890;2023-08-01T03:20:26;18.40;99.90
15296;DHT22;7749;49.964;7.890;2023-08-01T03:22:54;18.40;99.90
15296;DHT22;7749;49.964;7.890;2023-08-01T03:25:21;18.40;99.90
15296;DHT22;7749;49.964;7.890;2023-08-01T03:27:49;18.40;99.90
15296;DHT22;7749;49.964;7.890;2023-08-01T03:30:16;18.30;99.90
15296;DHT22;7749;49.964;7.890;2023-08-01T03:32:44;18.30;99.90
15296;DHT22;7749;49.964;7.890;2023-08-01T03:35:12;18.30;99.90
15296;DHT22;7749;49.964;7.890;2023-08-01T03:37:41;18.30;99.90
15296;DHT22;7749;49.964;7.890;2023-08-01T03:40:08;18.30;99.90
15296;DHT22;7749;49.964;7.890;2023-08-01T03:42:36;18.30;99.90
15296;DHT22;7749;49.964;7.890;2023-08-01T03:45:04;18.20;99.90
15296;DHT22;7749;49.964;7.890;2023-08-01T03:47:32;18.30;99.90
15296;DHT22;7749;49.964;7.890;2023-08-01T03:50:00;18.30;99.90
15296;DHT22;7749;49.964;7.890;2023-08-01T03:52:27;18.30;99.90
15296;DHT22;7749;49.964;7.890;2023-08-01T03:54:56;18.30;99.90
15296;DHT22;7749;49.964;7.890;2023-08-01T03:57:23;18.30;99.90
15296;DHT22;7749;49.964;7.890;2023-08-01T03:59:51;18.30;99.90
15296;DHT22;7749;49.964;7.890;2023-08-01T04:02:18;18.30;99.90
15296;DHT22;7749;49.964;7.890;2023-08-01T04:04:46;18.30;99.90
15296;DHT22;7749;49.964;7.890;2023-08-01T04:07:13;18.30;99.90
15296;DHT22;7749;49.964;7.890;2023-08-01T04:09:41;18.30;99.90
15296;DHT22;7749;49.964;7.890;2023-08-01T04:12:08;18.30;99.90
15296;DHT22;7749;49.964;7.890;2023-08-01T04:14:36;18.30;99.90
15296;DHT22;7749;49.964;7.890;2023-08-01T04:17:03;18.20;99.90
15296;DHT22;7749;49.964;7.890;2023-08-01T04:19:31;18.20;99.90
15296;DHT22;7749;49.964;7.890;2023-08-01T04:21:58;18.20;99.90
15296;DHT22;7749;49.964;7.890;2023-08-01T04:24:26;18.20;99.90
15296;DHT22;7749;49.964;7.890;2023-08-01T04:26:55;18.20;99.90
15296;DHT22;7749;49.964;7.890;2023-08-01T04:29:22;18.20;99.90
15296;DHT22;7749;49.964;7.890;2023-08-01T04:31:50;18.20;99.90
15296;DHT22;7749;49.964;7.890;2023-08-01T04:34:18;18.20;99.90
15296;DHT22;7749;49.964;7.890;2023-08-01T04:36:45;18.20;99.90
15296;DHT22;7749;49.964;7.890;2023-08-01T04:39:13;18.20;99.90
15296;DHT22;7749;49.964;7.890;2023-08-01T04:41:40;18.20;99.90
15296;DHT22;7749;49.964;7.890;2023-08-01T04:44:07;18.30;99.90
15296;DHT22;7749;49.964;7.890;2023-08-01T04:46:35;18.20;99.90
15296;DHT22;7749;49.964;7.890;2023-08-01T04:49:02;18.20;99.90
15296;DHT22;7749;49.964;7.890;2023-08-01T04:51:32;18.20;99.90
15296;DHT22;7749;49.964;7.890;2023-08-01T04:53:59;18.20;99.90
15296;DHT22;7749;49.964;7.890;2023-08-01T04:56:26;18.20;99.90
15296;DHT22;7749;49.964;7.890;2023-08-01T04:58:54;18.20;99.90
15296;DHT22;7749;49.964;7.890;2023-08-01T05:01:21;18.20;99.90
15296;DHT22;7749;49.964;7.890;2023-08-01T05:03:49;18.30;99.90
15296;DHT22;7749;49.964;7.890;2023-08-01T05:06:17;18.30;99.90
15296;DHT22;7749;49.964;7.890;2023-08-01T05:08:44;18.30;99.90
15296;DHT22;7749;49.964;7.890;2023-08-01T05:11:12;18.30;99.90
15296;DHT22;7749;49.964;7.890;2023-08-01T05:13:39;18.30;99.90
15296;DHT22;7749;49.964;7.890;2023-08-01T05:16:06;18.30;99.90
15296;DHT22;7749;49.964;7.890;2023-08-01T05:18:34;18.20;99.90
15296;DHT22;7749;49.964;7.890;2023-08-01T05:21:01;18.30;99.90
15296;DHT22;7749;49.964;7.890;2023-08-01T05:23:29;18.20;99.90
15296;DHT22;7749;49.964;7.890;2023-08-01T05:25:56;18.30;99.90
15296;DHT22;7749;49.964;7.890;2023-08-01T05:28:24;18.30;99.90
15296;DHT22;7749;49.964;7.890;2023-08-01T05:30:51;18.30;99.90
15296;DHT22;7749;49.964;7.890;2023-08-01T05:33:19;18.30;99.90
15296;DHT22;7749;49.964;7.890;2023-08-01T05:35:47;18.30;99.90
15296;DHT22;7749;49.964;7.890;2023-08-01T05:38:15;18.30;99.90
15296;DHT22;7749;49.964;7.890;2023-08-01T05:40:42;18.30;99.90
15296;DHT22;7749;49.964;7.890;2023-08-01T05:43:10;18.30;99.90
15296;DHT22;7749;49.964;7.890;2023-08-01T05:45:37;18.30;99.90
15296;DHT22;7749;49.964;7.890;2023-08-01T05:48:05;18.30;99.90
15296;DHT22;7749;49.964;7.890;2023-08-01T05:50:33;18.30;99.90
15296;DHT22;7749;49.964;7.890;2023-08-01T05:53:00;18.30;99.90
15296;DHT22;7749;49.964;7.890;2023-08-01T05:55:28;18.30;99.90
15296;DHT22;7749;49.964;7.890;2023-08-01T05:57:55;18.30;99.90
15296;DHT22;7749;49.964;7.890;2023-08-01T06:00:23;18.20;99.90
15296;DHT22;7749;49.964;7.890;2023-08-01T06:02:50;18.20;99.90
15296;DHT22;7749;49.964;7.890;2023-08-01T06:05:18;18.20;99.90
15296;DHT22;7749;49.964;7.890;2023-08-01T06:07:45;18.10;99.90
15296;DHT22;7749;49.964;7.890;2023-08-01T06:10:13;18.00;99.90
15296;DHT22;7749;49.964;7.890;2023-08-01T06:12:40;18.00;99.90
15296;DHT22;7749;49.964;7.890;2023-08-01T06:15:08;18.00;99.90
15296;DHT22;7749;49.964;7.890;2023-08-01T06:17:35;18.00;99.90
15296;DHT22;7749;49.964;7.890;2023-08-01T06:20:03;18.00;99.90
15296;DHT22;7749;49.964;7.890;2023-08-01T06:22:31;18.10;99.90
15296;DHT22;7749;49.964;7.890;2023-08-01T06:24:59;18.20;99.90
15296;DHT22;7749;49.964;7.890;2023-08-01T06:27:26;18.30;99.90
15296;DHT22;7749;49.964;7.890;2023-08-01T06:29:54;18.40;99.90
15296;DHT22;7749;49.964;7.890;2023-08-01T06:32:22;18.50;99.90
15296;DHT22;7749;49.964;7.890;2023-08-01T06:34:52;18.60;99.90
15296;DHT22;7749;49.964;7.890;2023-08-01T06:37:19;18.80;99.90
15296;DHT22;7749;49.964;7.890;2023-08-01T06:39:47;19.00;99.90
15296;DHT22;7749;49.964;7.890;2023-08-01T06:42:14;19.00;99.90
15296;DHT22;7749;49.964;7.890;2023-08-01T06:44:43;19.10;99.90
15296;DHT22;7749;49.964;7.890;2023-08-01T06:47:10;19.00;99.90
15296;DHT22;7749;49.964;7.890;2023-08-01T06:49:38;18.90;99.90
15296;DHT22;7749;49.964;7.890;2023-08-01T06:52:05;18.90;99.90
15296;DHT22;7749;49.964;7.890;2023-08-01T06:54:33;19.00;99.90
15296;DHT22;7749;49.964;7.890;2023-08-01T06:57:03;19.10;99.90
15296;DHT22;7749;49.964;7.890;2023-08-01T06:59:31;19.20;99.90
15296;DHT22;7749;49.964;7.890;2023-08-01T07:01:58;19.10;99.90
15296;DHT22;7749;49.964;7.890;2023-08-01T07:04:26;19.00;99.90
15296;DHT22;7749;49.964;7.890;2023-08-01T07:06:53;19.00;99.90
15296;DHT22;7749;49.964;7.890;2023-08-01T07:09:21;18.90;99.90
15296;DHT22;7749;49.964;7.890;2023-08-01T07:11:48;18.90;99.90
15296;DHT22;7749;49.964;7.890;2023-08-01T07:14:16;18.80;99.90
15296;DHT22;7749;49.964;7.890;2023-08-01T07:16:43;18.70;99.90
15296;DHT22;7749;49.964;7.890;2023-08-01T07:19:10;18.70;99.90
15296;DHT22;7749;49.964;7.890;2023-08-01T07:21:39;18.70;99.90
15296;DHT22;7749;49.964;7.890;2023-08-01T07:24:06;18.80;99.90
15296;DHT22;7749;49.964;7.890;2023-08-01T07:26:34;18.70;99.90
15296;DHT22;7749;49.964;7.890;2023-08-01T07:29:01;18.80;99.90
15296;DHT22;7749;49.964;7.890;2023-08-01T07:31:29;18.90;99.90
15296;DHT22;7749;49.964;7.890;2023-08-01T07:33:58;19.00;99.90
15296;DHT22;7749;49.964;7.890;2023-08-01T07:36:26;19.20;99.90
15296;DHT22;7749;49.964;7.890;2023-08-01T07:38:54;19.30;99.90
15296;DHT22;7749;49.964;7.890;2023-08-01T07:41:23;19.50;99.90
15296;DHT22;7749;49.964;7.890;2023-08-01T07:43:50;19.70;99.90
15296;DHT22;7749;49.964;7.890;2023-08-01T07:46:18;19.70;99.90
15296;DHT22;7749;49.964;7.890;2023-08-01T07:48:45;19.90;99.90
15296;DHT22;7749;49.964;7.890;2023-08-01T07:51:13;19.80;99.90
15296;DHT22;7749;49.964;7.890;2023-08-01T07:53:42;19.90;99.90
15296;DHT22;7749;49.964;7.890;2023-08-01T07:56:09;20.00;99.90
15296;DHT22;7749;49.964;7.890;2023-08-01T07:58:37;20.00;99.90
15296;DHT22;7749;49.964;7.890;2023-08-01T08:01:05;19.90;99.90
15296;DHT22;7749;49.964;7.890;2023-08-01T08:03:33;20.10;99.90
15296;DHT22;7749;49.964;7.890;2023-08-01T08:06:00;20.10;99.90
15296;DHT22;7749;49.964;7.890;2023-08-01T08:08:29;20.10;91.70
15296;DHT22;7749;49.964;7.890;2023-08-01T08:10:57;20.00;17.20
15296;DHT22;7749;49.964;7.890;2023-08-01T08:13:24;20.00;58.20
15296;DHT22;7749;49.964;7.890;2023-08-01T08:15:54;20.00;96.60
15296;DHT22;7749;49.964;7.890;2023-08-01T08:18:22;20.30;3.40
15296;DHT22;7749;49.964;7.890;2023-08-01T08:20:50;20.40;35.10
15296;DHT22;7749;49.964;7.890;2023-08-01T08:23:17;20.30;42.60
15296;DHT22;7749;49.964;7.890;2023-08-01T08:25:46;20.30;78.80
15296;DHT22;7749;49.964;7.890;2023-08-01T08:28:30;20.50;51.80
15296;DHT22;7749;49.964;7.890;2023-08-01T08:30:59;20.40;32.70
15296;DHT22;7749;49.964;7.890;2023-08-01T08:33:27;20.50;1.00
15296;DHT22;7749;49.964;7.890;2023-08-01T08:35:55;20.30;1.00
15296;DHT22;7749;49.964;7.890;2023-08-01T08:38:22;20.30;1.00
15296;DHT22;7749;49.964;7.890;2023-08-01T08:41:05;20.20;1.00
15296;DHT22;7749;49.964;7.890;2023-08-01T08:43:34;20.30;1.00
15296;DHT22;7749;49.964;7.890;2023-08-01T08:46:04;20.60;1.00
15296;DHT22;7749;49.964;7.890;2023-08-01T08:48:32;20.90;1.00
15296;DHT22;7749;49.964;7.890;2023-08-01T08:51:01;21.30;1.00
15296;DHT22;7749;49.964;7.890;2023-08-01T08:53:31;21.10;1.00
15296;DHT22;7749;49.964;7.890;2023-08-01T08:56:01;21.10;1.00
15296;DHT22;7749;49.964;7.890;2023-08-01T08:58:30;21.00;1.00
15296;DHT22;7749;49.964;7.890;2023-08-01T09:01:01;21.10;1.00
15296;DHT22;7749;49.964;7.890;2023-08-01T09:03:29;21.60;1.00
15296;DHT22;7749;49.964;7.890;2023-08-01T09:06:07;21.70;1.00
15296;DHT22;7749;49.964;7.890;2023-08-01T09:08:36;21.50;1.00
15296;DHT22;7749;49.964;7.890;2023-08-01T09:11:06;21.40;1.00
15296;DHT22;7749;49.964;7.890;2023-08-01T09:13:34;21.20;1.00
15296;DHT22;7749;49.964;7.890;2023-08-01T09:16:02;21.20;1.00
15296;DHT22;7749;49.964;7.890;2023-08-01T09:18:30;21.20;1.00
15296;DHT22;7749;49.964;7.890;2023-08-01T09:20:58;21.20;1.00
15296;DHT22;7749;49.964;7.890;2023-08-01T09:23:29;20.80;1.00
15296;DHT22;7749;49.964;7.890;2023-08-01T09:25:58;20.70;1.00
15296;DHT22;7749;49.964;7.890;2023-08-01T09:28:27;20.90;99.90
15296;DHT22;7749;49.964;7.890;2023-08-01T09:30:55;21.10;1.00
15296;DHT22;7749;49.964;7.890;2023-08-01T09:33:24;21.10;99.90
15296;DHT22;7749;49.964;7.890;2023-08-01T09:35:52;21.40;99.90
15296;DHT22;7749;49.964;7.890;2023-08-01T09:38:20;21.80;99.90
15296;DHT22;7749;49.964;7.890;2023-08-01T09:40:48;22.20;99.90
15296;DHT22;7749;49.964;7.890;2023-08-01T09:43:16;21.80;99.90
15296;DHT22;7749;49.964;7.890;2023-08-01T09:45:51;21.80;99.90
15296;DHT22;7749;49.964;7.890;2023-08-01T09:48:26;21.50;99.90
15296;DHT22;7749;49.964;7.890;2023-08-01T09:53:35;21.20;99.90
15296;DHT22;7749;49.964;7.890;2023-08-01T09:56:03;21.20;99.90
15296;DHT22;7749;49.964;7.890;2023-08-01T09:58:33;21.20;99.90
15296;DHT22;7749;49.964;7.890;2023-08-01T10:01:01;21.20;99.90
15296;DHT22;7749;49.964;7.890;2023-08-01T10:03:29;21.50;99.90
15296;DHT22;7749;49.964;7.890;2023-08-01T10:05:58;21.70;99.90
15296;DHT22;7749;49.964;7.890;2023-08-01T10:08:26;21.70;99.90
15296;DHT22;7749;49.964;7.890;2023-08-01T10:10:55;22.10;99.90
15296;DHT22;7749;49.964;7.890;2023-08-01T10:13:27;22.10;99.90
15296;DHT22;7749;49.964;7.890;2023-08-01T10:15:55;21.90;99.90
15296;DHT22;7749;49.964;7.890;2023-08-01T10:18:23;22.10;99.90
15296;DHT22;7749;49.964;7.890;2023-08-01T10:20:52;22.30;99.90
15296;DHT22;7749;49.964;7.890;2023-08-01T10:23:19;22.30;99.90
15296;DHT22;7749;49.964;7.890;2023-08-01T10:25:47;21.90;99.90
15296;DHT22;7749;49.964;7.890;2023-08-01T10:28:15;22.10;99.90
15296;DHT22;7749;49.964;7.890;2023-08-01T10:30:42;22.00;99.90
15296;DHT22;7749;49.964;7.890;2023-08-01T10:33:10;22.10;99.90
15296;DHT22;7749;49.964;7.890;2023-08-01T10:35:40;22.30;99.90
15296;DHT22;7749;49.964;7.890;2023-08-01T10:38:10;22.20;99.90
15296;DHT22;7749;49.964;7.890;2023-08-01T10:40:42;22.10;99.90
15296;DHT22;7749;49.964;7.890;2023-08-01T10:43:23;22.20;99.90
15296;DHT22;7749;49.964;7.890;2023-08-01T10:46:02;22.30;99.90
15296;DHT22;7749;49.964;7.890;2023-08-01T10:48:29;22.40;99.90
15296;DHT22;7749;49.964;7.890;2023-08-01T10:50:57;22.40;99.90
15296;DHT22;7749;49.964;7.890;2023-08-01T10:53:25;23.30;99.90
15296;DHT22;7749;49.964;7.890;2023-08-01T10:55:52;23.60;99.90
15296;DHT22;7749;49.964;7.890;2023-08-01T10:58:20;23.70;99.90
15296;DHT22;7749;49.964;7.890;2023-08-01T11:01:00;23.80;99.90
15296;DHT22;7749;49.964;7.890;2023-08-01T11:03:37;23.10;99.90
15296;DHT22;7749;49.964;7.890;2023-08-01T11:06:05;22.50;99.90
15296;DHT22;7749;49.964;7.890;2023-08-01T11:08:37;22.80;99.90
15296;DHT22;7749;49.964;7.890;2023-08-01T11:11:07;22.80;99.90
15296;DHT22;7749;49.964;7.890;2023-08-01T11:13:35;22.40;99.90
15296;DHT22;7749;49.964;7.890;2023-08-01T11:16:04;22.90;99.90
15296;DHT22;7749;49.964;7.890;2023-08-01T11:18:43;22.90;99.90
15296;DHT22;7749;49.964;7.890;2023-08-01T11:21:11;22.70;99.90
15296;DHT22;7749;49.964;7.890;2023-08-01T11:23:38;22.90;99.90
15296;DHT22;7749;49.964;7.890;2023-08-01T11:26:09;23.40;99.90
15296;DHT22;7749;49.964;7.890;2023-08-01T11:28:36;24.20;99.90
15296;DHT22;7749;49.964;7.890;2023-08-01T11:31:11;23.70;99.90
15296;DHT22;7749;49.964;7.890;2023-08-01T11:33:40;24.50;99.90
15296;DHT22;7749;49.964;7.890;2023-08-01T11:36:08;25.00;99.90
15296;DHT22;7749;49.964;7.890;2023-08-01T11:38:36;26.20;98.20
15296;DHT22;7749;49.964;7.890;2023-08-01T11:41:05;26.90;94.10
15296;DHT22;7749;49.964;7.890;2023-08-01T11:43:40;26.90;92.70
15296;DHT22;7749;49.964;7.890;2023-08-01T11:46:10;26.30;91.80
15296;DHT22;7749;49.964;7.890;2023-08-01T11:48:38;24.50;97.90
15296;DHT22;7749;49.964;7.890;2023-08-01T11:51:06;24.80;98.80
15296;DHT22;7749;49.964;7.890;2023-08-01T11:53:33;26.20;93.20
15296;DHT22;7749;49.964;7.890;2023-08-01T11:56:06;24.80;97.20
15296;DHT22;7749;49.964;7.890;2023-08-01T11:58:41;25.80;96.70
15296;DHT22;7749;49.964;7.890;2023-08-01T12:01:12;27.20;89.70
15296;DHT22;7749;49.964;7.890;2023-08-01T12:03:46;28.60;79.10
15296;DHT22;7749;49.964;7.890;2023-08-01T12:06:15;27.20;80.70
15296;DHT22;7749;49.964;7.890;2023-08-01T12:08:45;25.90;86.30
15296;DHT22;7749;49.964;7.890;2023-08-01T12:11:20;26.60;85.90
15296;DHT22;7749;49.964;7.890;2023-08-01T12:13:59;27.20;84.50
15296;DHT22;7749;49.964;7.890;2023-08-01T12:16:27;26.70;82.30
15296;DHT22;7749;49.964;7.890;2023-08-01T12:18:55;25.60;91.10
15296;DHT22;7749;49.964;7.890;2023-08-01T12:21:28;24.40;94.40
15296;DHT22;7749;49.964;7.890;2023-08-01T12:23:56;23.50;99.90
15296;DHT22;7749;49.964;7.890;2023-08-01T12:26:24;24.30;99.90
15296;DHT22;7749;49.964;7.890;2023-08-01T12:28:51;26.20;95.10
15296;DHT22;7749;49.964;7.890;2023-08-01T12:31:21;27.50;89.20
15296;DHT22;7749;49.964;7.890;2023-08-01T12:33:49;28.00;79.80
15296;DHT22;7749;49.964;7.890;2023-08-01T12:36:16;26.90;80.10
15296;DHT22;7749;49.964;7.890;2023-08-01T12:38:44;26.10;86.10
15296;DHT22;7749;49.964;7.890;2023-08-01T12:41:11;26.40;85.70
15296;DHT22;7749;49.964;7.890;2023-08-01T12:43:39;26.30;84.20
15296;DHT22;7749;49.964;7.890;2023-08-01T12:46:07;27.00;78.40
15296;DHT22;7749;49.964;7.890;2023-08-01T12:48:34;27.40;76.90
15296;DHT22;7749;49.964;7.890;2023-08-01T12:51:02;26.90;74.50
15296;DHT22;7749;49.964;7.890;2023-08-01T12:53:30;27.40;76.30
15296;DHT22;7749;49.964;7.890;2023-08-01T12:55:58;27.80;72.10
15296;DHT22;7749;49.964;7.890;2023-08-01T12:58:27;26.00;76.10
15296;DHT22;7749;49.964;7.890;2023-08-01T13:00:56;25.20;81.10
15296;DHT22;7749;49.964;7.890;2023-08-01T13:03:24;25.20;84.30
15296;DHT22;7749;49.964;7.890;2023-08-01T13:05:55;25.60;82.80
15296;DHT22;7749;49.964;7.890;2023-08-01T13:08:24;25.70;83.50
15296;DHT22;7749;49.964;7.890;2023-08-01T13:10:52;26.60;82.40
15296;DHT22;7749;49.964;7.890;2023-08-01T13:13:19;26.60;80.90
15296;DHT22;7749;49.964;7.890;2023-08-01T13:15:47;25.90;82.70
15296;DHT22;7749;49.964;7.890;2023-08-01T13:18:14;24.70;97.20
15296;DHT22;7749;49.964;7.890;2023-08-01T13:20:43;22.80;1.00
15296;DHT22;7749;49.964;7.890;2023-08-01T13:23:11;21.20;1.00
15296;DHT22;7749;49.964;7.890;2023-08-01T13:25:38;20.30;1.00
15296;DHT22;7749;49.964;7.890;2023-08-01T13:28:06;19.90;47.70
15296;DHT22;7749;49.964;7.890;2023-08-01T13:30:33;19.90;93.70
15296;DHT22;7749;49.964;7.890;2023-08-01T13:33:01;20.60;99.90
15296;DHT22;7749;49.964;7.890;2023-08-01T13:35:28;22.30;1.00
15296;DHT22;7749;49.964;7.890;2023-08-01T13:37:56;22.40;1.00
15296;DHT22;7749;49.964;7.890;2023-08-01T13:40:25;22.60;99.90
15296;DHT22;7749;49.964;7.890;2023-08-01T13:42:53;22.10;1.00
15296;DHT22;7749;49.964;7.890;2023-08-01T13:45:20;21.30;1.00
15296;DHT22;7749;49.964;7.890;2023-08-01T13:47:48;20.40;99.90
15296;DHT22;7749;49.964;7.890;2023-08-01T13:50:16;19.90;99.90
15296;DHT22;7749;49.964;7.890;2023-08-01T13:52:43;19.90;99.90
15296;DHT22;7749;49.964;7.890;2023-08-01T13:55:11;19.90;99.90
15296;DHT22;7749;49.964;7.890;2023-08-01T13:57:38;19.90;99.90
15296;DHT22;7749;49.964;7.890;2023-08-01T14:00:06;19.70;99.90
15296;DHT22;7749;49.964;7.890;2023-08-01T14:02:40;19.70;99.90
15296;DHT22;7749;49.964;7.890;2023-08-01T14:05:08;20.00;99.90
15296;DHT22;7749;49.964;7.890;2023-08-01T14:07:36;20.60;99.90
15296;DHT22;7749;49.964;7.890;2023-08-01T14:10:11;21.80;99.90
15296;DHT22;7749;49.964;7.890;2023-08-01T14:12:38;23.50;99.90
15296;DHT22;7749;49.964;7.890;2023-08-01T14:15:06;25.60;99.90
15296;DHT22;7749;49.964;7.890;2023-08-01T14:17:34;27.30;99.90
15296;DHT22;7749;49.964;7.890;2023-08-01T14:20:02;28.90;99.90
15296;DHT22;7749;49.964;7.890;2023-08-01T14:22:33;30.30;99.90
15296;DHT22;7749;49.964;7.890;2023-08-01T14:25:00;30.50;99.90
15296;DHT22;7749;49.964;7.890;2023-08-01T14:27:28;30.30;99.90
15296;DHT22;7749;49.964;7.890;2023-08-01T14:29:56;31.30;99.90
15296;DHT22;7749;49.964;7.890;2023-08-01T14:32:23;30.90;98.70
15296;DHT22;7749;49.964;7.890;2023-08-01T14:34:51;31.40;98.00
15296;DHT22;7749;49.964;7.890;2023-08-01T14:37:18;30.70;95.00
15296;DHT22;7749;49.964;7.890;2023-08-01T14:39:46;28.70;99.90
15296;DHT22;7749;49.964;7.890;2023-08-01T14:42:14;26.90;99.90
15296;DHT22;7749;49.964;7.890;2023-08-01T14:44:41;25.60;1.00
15296;DHT22;7749;49.964;7.890;2023-08-01T14:47:17;24.50;1.00
15296;DHT22;7749;49.964;7.890;2023-08-01T14:49:45;23.10;1.00
15296;DHT22;7749;49.964;7.890;2023-08-01T14:52:12;22.10;1.00
15296;DHT22;7749;49.964;7.890;2023-08-01T14:54:40;21.50;1.00
15296;DHT22;7749;49.964;7.890;2023-08-01T14:57:08;21.10;92.60
15296;DHT22;7749;49.964;7.890;2023-08-01T14:59:36;20.40;92.40
15296;DHT22;7749;49.964;7.890;2023-08-01T15:02:05;20.30;99.90
15296;DHT22;7749;49.964;7.890;2023-08-01T15:04:36;20.70;25.30
15296;DHT22;7749;49.964;7.890;2023-08-01T15:07:04;20.90;99.90
15296;DHT22;7749;49.964;7.890;2023-08-01T15:09:33;22.10;99.90
15296;DHT22;7749;49.964;7.890;2023-08-01T15:12:03;24.50;99.90
15296;DHT22;7749;49.964;7.890;2023-08-01T15:14:31;25.40;99.90
15296;DHT22;7749;49.964;7.890;2023-08-01T15:16:58;27.70;99.90
15296;DHT22;7749;49.964;7.890;2023-08-01T15:19:26;27.90;99.90
15296;DHT22;7749;49.964;7.890;2023-08-01T15:21:53;27.10;99.90
15296;DHT22;7749;49.964;7.890;2023-08-01T15:24:21;26.50;99.90
15296;DHT22;7749;49.964;7.890;2023-08-01T15:26:48;26.80;99.90
15296;DHT22;7749;49.964;7.890;2023-08-01T15:29:16;26.30;99.90
15296;DHT22;7749;49.964;7.890;2023-08-01T15:31:43;26.00;99.90
15296;DHT22;7749;49.964;7.890;2023-08-01T15:34:11;27.10;99.90
15296;DHT22;7749;49.964;7.890;2023-08-01T15:36:39;26.50;99.90
15296;DHT22;7749;49.964;7.890;2023-08-01T15:39:07;28.10;99.90
15296;DHT22;7749;49.964;7.890;2023-08-01T15:41:34;26.70;99.90
15296;DHT22;7749;49.964;7.890;2023-08-01T15:44:02;27.20;99.90
15296;DHT22;7749;49.964;7.890;2023-08-01T15:46:30;26.00;99.90
15296;DHT22;7749;49.964;7.890;2023-08-01T15:48:57;24.90;99.90
15296;DHT22;7749;49.964;7.890;2023-08-01T15:51:24;24.90;99.90
15296;DHT22;7749;49.964;7.890;2023-08-01T15:53:53;23.80;1.00
15296;DHT22;7749;49.964;7.890;2023-08-01T15:56:20;23.70;1.00
15296;DHT22;7749;49.964;7.890;2023-08-01T15:58:48;23.80;1.00